Time;durP1;ratioP1;P1;durP2;ratioP2;P2;SDS_P1;SDS_P2;PMS_P1;PMS_P2;Temp;Humidity;BMP_temperature;BMP_pressure;BME280_temperature;BME280_humidity;BME280_pressure;Samples;Min_cycle;Max_cycle;Signal;HPM_P1;HPM_P2
2022/11/07 00:00:55;;;;;;;;;4.33;1.00;;;;;12.90;76.16;100867.81;4887512;29;45283;-75
2022/11/07 00:03:20;;;;;;;;;3.00;1.33;;;;;12.90;76.48;100863.38;4904795;29;45229;-75
2022/11/07 00:05:46;;;;;;;;;4.33;3.00;;;;;12.92;76.22;100864.25;4904348;29;45162;-76
2022/11/07 00:08:11;;;;;;;;;5.00;2.33;;;;;12.98;75.98;100866.81;4887428;29;46882;-76
2022/11/07 00:10:36;;;;;;;;;5.33;4.67;;;;;12.84;76.12;100842.31;4904250;29;45264;-75
2022/11/07 00:13:02;;;;;;;;;4.00;4.00;;;;;12.87;76.23;100850.22;4904791;29;45232;-76
2022/11/07 00:15:27;;;;;;;;;3.00;3.00;;;;;12.91;76.34;100845.75;4904449;29;45495;-76
2022/11/07 00:17:52;;;;;;;;;4.33;3.00;;;;;12.94;76.04;100858.97;4912120;28;46294;-75
2022/11/07 00:20:18;;;;;;;;;5.67;2.67;;;;;12.85;76.39;100846.72;4905571;28;45476;-76
2022/11/07 00:22:43;;;;;;;;;3.33;2.33;;;;;12.92;76.17;100869.53;4904158;29;45333;-76
2022/11/07 00:25:09;;;;;;;;;4.00;4.00;;;;;12.99;76.22;100870.31;4904402;29;45502;-75
2022/11/07 00:27:34;;;;;;;;;6.67;5.00;;;;;12.90;76.39;100858.09;4904129;29;46425;-76
2022/11/07 00:29:59;;;;;;;;;3.67;2.00;;;;;12.86;75.61;100842.31;4904285;29;45297;-76
2022/11/07 00:32:25;;;;;;;;;6.00;3.67;;;;;12.90;75.98;100841.38;4887211;29;45449;-75
2022/11/07 00:34:50;;;;;;;;;1.67;1.67;;;;;12.90;76.35;100850.19;4904303;29;45390;-75
2022/11/07 00:37:15;;;;;;;;;4.00;2.00;;;;;12.87;76.12;100828.22;4904048;29;45528;-75
2022/11/07 00:39:41;;;;;;;;;2.00;2.00;;;;;12.92;75.99;100837.81;4886581;29;45276;-76
2022/11/07 00:42:06;;;;;;;;;3.33;3.00;;;;;12.92;76.09;100839.59;4905844;28;45433;-76
2022/11/07 00:44:31;;;;;;;;;3.67;1.00;;;;;12.95;76.03;100831.63;4904019;29;45384;-76
2022/11/07 00:46:57;;;;;;;;;2.67;1.67;;;;;12.99;75.91;100833.31;4911655;28;45438;-75
2022/11/07 00:49:22;;;;;;;;;3.00;2.00;;;;;13.01;76.21;100850.06;4889223;29;45350;-76
2022/11/07 00:51:47;;;;;;;;;4.33;2.00;;;;;12.97;76.04;100827.22;4904032;29;45382;-76
2022/11/07 00:54:13;;;;;;;;;6.33;4.00;;;;;12.98;75.60;100821.03;4886691;29;45540;-76
2022/11/07 00:56:38;;;;;;;;;4.00;3.00;;;;;13.04;75.73;100828.88;4886779;29;47988;-76
2022/11/07 00:59:04;;;;;;;;;4.00;2.33;;;;;12.99;76.02;100823.66;4903643;29;45236;-75
2022/11/07 01:01:31;;;;;;;;;6.00;3.33;;;;;13.15;75.94;100842.84;4886791;29;45262;-75
2022/11/07 01:06:43;;;;;;;;;3.67;2.67;;;;;13.24;75.64;100865.63;4891205;29;45397;-76
2022/11/07 01:09:10;;;;;;;;;4.33;2.33;;;;;13.27;75.72;100864.75;4884682;29;45542;-75
2022/11/07 01:11:37;;;;;;;;;3.00;1.67;;;;;13.17;75.62;100846.31;4884895;29;45369;-76
2022/11/07 01:14:03;;;;;;;;;4.00;1.67;;;;;13.27;75.51;100848.91;4891695;29;45373;-75
2022/11/07 01:16:30;;;;;;;;;4.00;2.00;;;;;13.22;75.28;100835.69;4903356;29;46675;-76
2022/11/07 01:18:55;;;;;;;;;5.00;3.33;;;;;13.14;75.20;100825.22;4895977;29;45225;-76
2022/11/07 01:21:21;;;;;;;;;6.00;2.50;;;;;13.25;75.34;100841.81;4886275;29;45435;-76
2022/11/07 01:23:47;;;;;;;;;5.00;2.00;;;;;13.34;75.23;100854.09;4903688;29;45373;-76
2022/11/07 01:26:14;;;;;;;;;5.00;3.00;;;;;13.24;74.94;100836.56;4903433;29;45342;-76
2022/11/07 01:28:40;;;;;;;;;2.33;2.00;;;;;13.29;75.01;100847.13;4886651;29;45482;-76
2022/11/07 01:31:08;;;;;;;;;4.00;2.67;;;;;13.33;75.17;100854.97;4903276;29;45331;-75
2022/11/07 01:33:34;;;;;;;;;3.00;3.00;;;;;13.35;74.89;100863.75;4903267;29;45192;-75
2022/11/07 01:36:02;;;;;;;;;2.67;2.00;;;;;13.36;75.00;100862.84;4901802;29;47893;-76
2022/11/07 01:38:27;;;;;;;;;2.00;1.00;;;;;13.40;75.15;100874.28;4902090;29;45297;-75
2022/11/07 01:43:47;;;;;;;;;6.00;3.00;;;;;13.23;74.99;100848.00;4903454;29;45192;-75
2022/11/07 01:46:13;;;;;;;;;3.00;2.67;;;;;13.34;75.31;100854.09;4904909;28;45437;-75
2022/11/07 01:48:42;;;;;;;;;3.67;2.33;;;;;13.36;74.98;100867.28;4893786;29;45484;-76
2022/11/07 01:51:08;;;;;;;;;4.00;4.00;;;;;13.42;74.93;100880.44;4902882;29;45510;-76
2022/11/07 01:53:34;;;;;;;;;5.00;3.00;;;;;13.43;75.00;100877.75;4902936;29;45448;-76
2022/11/07 01:56:00;;;;;;;;;5.00;3.00;;;;;13.41;74.79;100868.94;4902943;29;46548;-76
2022/11/07 01:58:26;;;;;;;;;4.33;2.00;;;;;13.35;74.94;100850.53;4885941;29;46057;-75
2022/11/07 02:00:51;;;;;;;;;5.33;1.67;;;;;13.36;75.14;100859.34;4903096;29;45456;-74
2022/11/07 02:03:20;;;;;;;;;4.00;2.00;;;;;13.40;75.11;100869.00;4903183;29;45211;-76
2022/11/07 02:05:56;;;;;;;;;6.33;3.00;;;;;13.41;75.02;100883.94;4902672;29;46566;-76
2022/11/07 02:08:23;;;;;;;;;6.00;2.67;;;;;13.32;74.71;100871.72;4902762;29;45276;-76
2022/11/07 02:10:48;;;;;;;;;5.33;3.67;;;;;13.27;75.14;100880.63;4903388;29;45412;-75
2022/11/07 02:13:23;;;;;;;;;6.00;3.67;;;;;13.25;74.75;100885.88;4903072;29;45286;-75
2022/11/07 02:15:49;;;;;;;;;5.00;3.67;;;;;13.26;74.96;100890.31;4885992;29;46481;-78
2022/11/07 02:18:14;;;;;;;;;2.67;2.67;;;;;13.31;75.00;100898.19;4911812;28;45203;-75
2022/11/07 02:20:40;;;;;;;;;4.00;3.00;;;;;13.17;74.79;100866.59;4903123;29;45284;-77
2022/11/07 02:23:11;;;;;;;;;6.00;2.67;;;;;13.26;74.86;100898.25;4903372;29;45250;-75
2022/11/07 02:25:37;;;;;;;;;4.33;2.33;;;;;13.21;75.04;100881.53;4902992;29;45484;-76
2022/11/07 02:28:07;;;;;;;;;6.00;2.67;;;;;13.20;75.29;100875.38;4902645;29;45358;-76
2022/11/07 02:30:33;;;;;;;;;5.33;5.33;;;;;13.10;75.22;100855.25;4902960;29;45252;-76
2022/11/07 02:33:00;;;;;;;;;3.00;3.00;;;;;13.15;75.07;100857.81;4902551;29;45625;-76
2022/11/07 02:35:38;;;;;;;;;7.33;3.67;;;;;13.29;75.33;100884.13;4902614;29;45640;-75
2022/11/07 02:38:28;;;;;;;;;6.00;3.67;;;;;13.25;75.34;100885.88;4885309;29;45445;-76
2022/11/07 02:41:01;;;;;;;;;4.00;3.00;;;;;13.14;74.91;100867.50;4904279;28;45292;-76
2022/11/07 02:43:30;;;;;;;;;5.00;4.00;;;;;13.28;75.10;100883.22;4895791;29;45351;-76
2022/11/07 02:45:59;;;;;;;;;5.00;2.33;;;;;13.15;75.20;100865.72;4886826;29;45431;-75
2022/11/07 02:48:29;;;;;;;;;4.00;3.00;;;;;13.23;75.48;100861.22;4914427;28;45266;-76
2022/11/07 02:50:55;;;;;;;;;4.00;3.00;;;;;13.15;75.19;100844.59;4905559;29;45324;-76
2022/11/07 02:53:20;;;;;;;;;5.67;3.33;;;;;13.23;75.19;100859.47;4905656;29;45442;-75
2022/11/07 02:55:45;;;;;;;;;5.00;2.33;;;;;13.32;75.17;100871.72;4905604;29;46628;-76
2022/11/07 02:58:11;;;;;;;;;3.00;3.00;;;;;13.25;75.04;100857.66;4905767;29;45436;-77
2022/11/07 03:00:36;;;;;;;;;3.00;3.00;;;;;13.24;75.04;100863.00;4905785;29;45555;-76
2022/11/07 03:03:02;;;;;;;;;3.00;2.67;;;;;13.36;74.58;100870.78;4905681;29;45550;-76
2022/11/07 03:05:27;;;;;;;;;5.00;2.00;;;;;13.33;75.00;100862.91;4905537;29;46424;-76
2022/11/07 03:07:53;;;;;;;;;5.00;4.33;;;;;13.36;74.97;100877.84;4888012;29;45375;-75
2022/11/07 03:10:18;;;;;;;;;2.00;2.00;;;;;13.30;74.87;100864.72;4905526;29;45917;-76
2022/11/07 03:12:44;;;;;;;;;3.00;1.67;;;;;13.37;75.00;100880.47;4888361;29;45315;-76
2022/11/07 03:15:10;;;;;;;;;5.00;3.00;;;;;13.29;74.56;100876.19;4905328;29;45414;-76
2022/11/07 03:17:36;;;;;;;;;4.67;3.33;;;;;13.24;74.49;100858.56;4893848;28;45482;-76
2022/11/07 03:20:02;;;;;;;;;3.67;3.00;;;;;13.34;74.44;100880.53;4908642;28;45163;-75
2022/11/07 03:22:28;;;;;;;;;5.33;4.00;;;;;13.38;74.67;100891.94;4905128;29;45563;-76
2022/11/07 03:24:53;;;;;;;;;4.00;3.00;;;;;13.36;74.42;100883.13;4905132;29;45578;-76
2022/11/07 03:27:18;;;;;;;;;5.00;3.33;;;;;13.37;74.20;100890.19;4905326;29;45349;-76
2022/11/07 03:29:44;;;;;;;;;5.67;4.00;;;;;13.36;74.35;100885.78;4888281;29;45672;-75
2022/11/07 03:32:09;;;;;;;;;5.00;5.00;;;;;13.27;74.52;100868.28;4905334;29;45412;-76
2022/11/07 03:34:35;;;;;;;;;3.33;2.00;;;;;13.44;74.48;100900.69;4905112;29;45435;-76
2022/11/07 03:37:00;;;;;;;;;5.00;2.00;;;;;13.37;74.56;100879.63;4905026;29;45437;-75
2022/11/07 03:39:26;;;;;;;;;3.67;3.00;;;;;13.37;74.28;100877.84;4905063;29;45437;-76
2022/11/07 03:41:51;;;;;;;;;3.00;2.00;;;;;13.40;74.82;100876.91;4889671;29;45369;-75
2022/11/07 03:44:17;;;;;;;;;4.00;2.67;;;;;13.33;74.48;100862.03;4905080;29;45393;-76
2022/11/07 03:46:42;;;;;;;;;4.33;4.00;;;;;13.27;74.55;100847.13;4910915;28;45364;-76
2022/11/07 03:49:08;;;;;;;;;3.33;3.33;;;;;13.37;74.61;100867.25;4909318;28;45665;-76
2022/11/07 03:51:33;;;;;;;;;4.67;4.33;;;;;13.36;74.43;100864.63;4904799;29;45504;-76
2022/11/07 03:53:59;;;;;;;;;7.00;5.00;;;;;13.36;74.63;100865.50;4904414;29;45429;-76
2022/11/07 03:56:24;;;;;;;;;3.33;3.00;;;;;13.27;74.74;100840.97;4904181;29;45258;-76
2022/11/07 03:58:49;;;;;;;;;1.33;1.00;;;;;13.27;74.51;100860.34;4904877;29;45255;-77
2022/11/07 04:01:15;;;;;;;;;2.00;1.00;;;;;13.25;74.67;100851.50;4905086;29;45595;-75
2022/11/07 04:03:40;;;;;;;;;3.33;2.00;;;;;13.31;74.89;100866.44;4904715;29;46456;-76
2022/11/07 04:06:06;;;;;;;;;3.67;3.33;;;;;13.37;74.94;100876.97;4904716;29;45250;-76
2022/11/07 04:08:31;;;;;;;;;1.67;1.00;;;;;13.35;74.73;100863.75;4904415;29;45582;-75
2022/11/07 04:10:56;;;;;;;;;2.67;2.67;;;;;13.35;74.94;100873.47;4904889;29;45246;-76
2022/11/07 04:18:53;;;;;;;;;2.33;2.33;;;;;13.28;75.02;100853.28;4912838;28;45229;-76
2022/11/07 04:21:19;;;;;;;;;4.33;1.67;;;;;13.33;75.00;100862.03;4904099;29;45467;-77
2022/11/07 04:23:44;;;;;;;;;4.67;3.00;;;;;13.34;74.93;100858.47;4887176;29;47647;-76
2022/11/07 04:29:04;;;;;;;;;2.00;2.00;;;;;13.37;74.67;100872.56;4852874;29;45508;-77
2022/11/07 04:31:29;;;;;;;;;6.67;4.67;;;;;13.37;75.01;100877.84;4904182;29;45382;-75
2022/11/07 04:33:55;;;;;;;;;4.33;3.67;;;;;13.42;75.00;100877.78;4904242;29;46191;-76
2022/11/07 04:36:20;;;;;;;;;3.00;2.00;;;;;13.43;75.32;100875.09;4904014;29;45554;-76
2022/11/07 04:38:46;;;;;;;;;5.33;4.00;;;;;13.37;74.77;100861.97;4904222;29;45248;-75
2022/11/07 04:41:20;;;;;;;;;4.00;4.00;;;;;13.48;74.97;100882.13;4904172;28;45268;-76
2022/11/07 04:43:45;;;;;;;;;4.67;1.00;;;;;13.45;74.94;100885.69;4904049;29;45393;-76
2022/11/07 04:46:10;;;;;;;;;3.33;2.00;;;;;13.36;75.05;100872.56;4888497;28;45409;-76
2022/11/07 04:48:36;;;;;;;;;3.00;2.00;;;;;13.41;75.16;100882.19;4912280;28;45322;-76
2022/11/07 04:51:01;;;;;;;;;4.00;3.33;;;;;13.39;74.92;100869.88;4903860;29;45378;-76
2022/11/07 04:53:26;;;;;;;;;5.33;3.33;;;;;13.48;75.28;100887.41;4903818;29;46294;-75
2022/11/07 04:55:52;;;;;;;;;2.33;2.33;;;;;13.41;74.92;100881.31;4886792;29;45351;-76
2022/11/07 04:58:17;;;;;;;;;3.00;2.00;;;;;13.44;74.67;100876.88;4903941;29;45352;-76
2022/11/07 05:00:42;;;;;;;;;4.00;2.67;;;;;13.46;75.32;100875.06;4903856;29;45376;-75
2022/11/07 05:03:08;;;;;;;;;3.33;3.33;;;;;13.53;75.12;100886.44;4886717;29;47069;-76
2022/11/07 05:05:34;;;;;;;;;3.33;3.33;;;;;13.54;75.20;100880.25;4903513;29;45166;-76
2022/11/07 05:07:59;;;;;;;;;3.67;3.33;;;;;13.42;74.91;100857.50;4903910;29;45484;-75
2022/11/07 05:10:27;;;;;;;;;2.33;1.67;;;;;13.51;75.08;100874.13;4903573;29;45454;-76
2022/11/07 05:12:53;;;;;;;;;3.00;3.00;;;;;13.50;74.83;100872.38;4886745;29;48074;-76
2022/11/07 05:15:19;;;;;;;;;5.33;4.00;;;;;13.46;75.20;100868.91;4903424;29;45500;-76
2022/11/07 05:17:45;;;;;;;;;4.00;3.00;;;;;13.48;74.89;100869.75;4893413;28;45433;-76
2022/11/07 05:20:27;;;;;;;;;4.00;3.00;;;;;13.53;74.96;100875.00;4905298;28;45368;-76
2022/11/07 05:23:11;;;;;;;;;3.00;2.00;;;;;13.45;74.79;100877.75;4903280;29;45320;-76
2022/11/07 05:25:44;;;;;;;;;3.33;3.00;;;;;13.58;75.32;100889.00;4903503;29;45286;-75
2022/11/07 05:28:11;;;;;;;;;4.00;3.33;;;;;13.53;74.94;100890.88;4903599;29;45293;-76
2022/11/07 05:30:40;;;;;;;;;3.33;3.33;;;;;13.58;75.03;100913.72;4903417;29;45552;-76
2022/11/07 05:33:07;;;;;;;;;6.00;5.00;;;;;13.54;75.18;100904.06;4869719;29;46816;-77
2022/11/07 05:35:33;;;;;;;;;6.67;3.67;;;;;13.50;74.99;100899.72;4884409;29;45541;-76
2022/11/07 05:37:59;;;;;;;;;2.67;2.67;;;;;13.56;74.89;100893.47;4884271;29;45414;-76
2022/11/07 05:40:24;;;;;;;;;3.00;3.00;;;;;13.50;75.06;100888.22;4884561;29;45500;-76
2022/11/07 05:42:49;;;;;;;;;6.33;5.00;;;;;13.61;74.93;100910.16;4903837;28;46694;-76
2022/11/07 05:45:15;;;;;;;;;7.00;4.00;;;;;13.65;74.89;100917.13;4886309;29;45222;-76
2022/11/07 05:47:40;;;;;;;;;4.33;3.67;;;;;13.64;74.68;100907.47;4913515;28;45165;-76
2022/11/07 05:50:06;;;;;;;;;3.67;3.00;;;;;13.57;74.85;100905.78;4903453;29;45267;-76
2022/11/07 05:52:32;;;;;;;;;4.33;3.00;;;;;13.57;74.87;100890.78;4902843;29;45270;-76
2022/11/07 05:54:57;;;;;;;;;3.67;2.33;;;;;13.64;74.75;100916.25;4903041;29;45296;-75
2022/11/07 05:57:22;;;;;;;;;5.00;1.67;;;;;13.59;74.54;100906.66;4886159;29;45435;-76
2022/11/07 05:59:48;;;;;;;;;1.67;1.67;;;;;13.59;75.01;100904.88;4903285;29;45408;-75
2022/11/07 06:02:13;;;;;;;;;2.00;2.00;;;;;13.62;74.81;100907.47;4902951;29;45343;-76
2022/11/07 06:04:38;;;;;;;;;5.33;2.00;;;;;13.54;74.93;100897.91;4903387;29;45513;-75
2022/11/07 06:07:04;;;;;;;;;4.00;2.00;;;;;13.61;74.86;100903.09;4903036;29;45567;-75
2022/11/07 06:09:29;;;;;;;;;2.00;2.00;;;;;13.57;75.07;100914.59;4886015;29;45630;-75
2022/11/07 06:11:54;;;;;;;;;2.00;2.00;;;;;13.48;75.01;100898.84;4902858;29;46502;-75
2022/11/07 06:14:20;;;;;;;;;4.33;3.67;;;;;13.45;74.94;100893.59;4885120;29;45717;-75
2022/11/07 06:16:45;;;;;;;;;3.67;2.00;;;;;13.48;74.90;100906.78;4903003;29;45285;-76
2022/11/07 06:19:10;;;;;;;;;3.67;3.67;;;;;13.43;75.13;100911.25;4896889;29;45418;-75
2022/11/07 06:21:36;;;;;;;;;2.67;2.67;;;;;13.41;75.02;100902.47;4890713;29;46542;-75
2022/11/07 06:24:01;;;;;;;;;1.00;1.00;;;;;13.36;74.89;100901.66;4887294;29;45393;-75
2022/11/07 06:26:27;;;;;;;;;4.33;3.00;;;;;13.45;75.20;100920.06;4870204;29;45423;-75
2022/11/07 06:28:52;;;;;;;;;2.67;2.33;;;;;13.52;74.84;100926.13;4870007;29;45563;-75
2022/11/07 06:31:18;;;;;;;;;3.00;2.00;;;;;13.33;74.80;100905.19;4886922;29;45456;-75
2022/11/07 06:33:43;;;;;;;;;2.67;1.67;;;;;13.53;75.10;100941.13;4887150;29;45283;-75
2022/11/07 06:36:11;;;;;;;;;2.33;1.00;;;;;13.41;74.98;100923.63;4869961;29;45390;-75
2022/11/07 06:38:38;;;;;;;;;3.33;2.67;;;;;13.29;75.26;100895.56;4886874;29;45298;-75
2022/11/07 06:41:09;;;;;;;;;4.00;2.00;;;;;13.53;74.72;100934.06;4892404;28;46275;-75
2022/11/07 06:43:35;;;;;;;;;2.67;1.00;;;;;13.46;75.02;100921.78;4879526;29;45374;-76
2022/11/07 06:46:05;;;;;;;;;1.67;1.67;;;;;13.36;75.10;100901.66;4870517;28;45372;-75
2022/11/07 06:48:31;;;;;;;;;4.00;3.00;;;;;13.47;75.21;100926.19;4913748;28;45471;-75
2022/11/07 06:51:02;;;;;;;;;3.00;2.00;;;;;13.46;75.13;100919.16;4905405;29;45551;-75
2022/11/07 06:53:28;;;;;;;;;3.00;3.00;;;;;13.53;75.32;100939.34;4905448;29;45262;-75
2022/11/07 06:55:54;;;;;;;;;3.00;2.00;;;;;13.49;74.92;100924.41;4904482;29;45559;-75
2022/11/07 06:58:30;;;;;;;;;;;;;;;;;;;;;
2022/11/07 07:01:17;;;;;;;;;;;;;;;;;;;;;
2022/11/07 07:03:55;;;;;;;;;;;;;;;;;;;;;
2022/11/07 07:06:30;;;;;;;;;;;;;;;;;;;;;
2022/11/07 07:09:08;;;;;;;;;;;;;;;;;;;;;
2022/11/07 07:11:47;;;;;;;;;;;;;;;;;;;;;
2022/11/07 07:14:25;;;;;;;;;;;;;;;;;;;;;
2022/11/07 07:17:01;;;;;;;;;;;;;;;;;;;;;
2022/11/07 07:19:37;;;;;;;;;;;;;;;;;;;;;
2022/11/07 07:22:14;;;;;;;;;;;;;;;;;;;;;
2022/11/07 07:24:50;;;;;;;;;;;;;;;;;;;;;
2022/11/07 07:27:19;;;;;;;;;3.67;3.00;;;;;13.82;75.27;100946.91;4885606;29;68656;-75
2022/11/07 07:29:56;;;;;;;;;;;;;;;;;;;;;
2022/11/07 07:32:24;;;;;;;;;5.00;3.00;;;;;13.76;75.14;100931.09;4895711;29;75200;-75
2022/11/07 07:35:05;;;;;;;;;;;;;;;;;;;;;
2022/11/07 07:37:31;;;;;;;;;3.67;3.00;;;;;13.95;75.13;100941.41;4903993;29;68683;-76
2022/11/07 07:39:56;;;;;;;;;2.00;2.00;;;;;13.94;75.03;100939.69;4885677;29;45233;-75
2022/11/07 07:42:22;;;;;;;;;3.33;3.33;;;;;14.00;75.05;100947.53;4902159;28;46469;-75
2022/11/07 07:44:47;;;;;;;;;2.33;1.00;;;;;14.05;74.83;100956.28;4904886;29;45641;-75
2022/11/07 07:47:13;;;;;;;;;4.67;4.00;;;;;14.13;74.83;100960.53;4914830;28;45388;-75
2022/11/07 07:49:38;;;;;;;;;4.00;2.67;;;;;14.12;74.75;100947.34;4905023;28;45170;-75
2022/11/07 07:52:04;;;;;;;;;3.00;3.00;;;;;14.24;74.61;100955.09;4904523;29;45709;-75
2022/11/07 07:54:29;;;;;;;;;4.00;3.00;;;;;14.25;74.77;100954.22;4903229;29;45422;-75
2022/11/07 07:56:55;;;;;;;;;3.00;2.00;;;;;14.29;74.55;100955.03;4904635;29;45472;-75
2022/11/07 07:59:20;;;;;;;;;6.00;3.33;;;;;14.33;74.39;100962.03;4887518;29;45527;-75
2022/11/07 08:01:46;;;;;;;;;5.00;5.00;;;;;14.35;74.57;100968.16;4887465;29;47163;-76
2022/11/07 08:04:11;;;;;;;;;7.00;5.00;;;;;14.43;74.30;100976.00;4904438;29;45356;-77
2022/11/07 08:06:36;;;;;;;;;3.67;3.33;;;;;14.45;74.08;100971.56;4904295;29;45341;-77
2022/11/07 08:09:03;;;;;;;;;5.67;3.00;;;;;14.61;73.89;100988.09;4887041;29;45566;-76
2022/11/07 08:11:28;;;;;;;;;4.33;3.00;;;;;14.55;73.89;100974.06;4904296;29;45434;-76
2022/11/07 08:13:54;;;;;;;;;5.00;4.00;;;;;14.63;74.13;100976.59;4904217;29;45262;-76
2022/11/07 08:16:19;;;;;;;;;5.33;4.33;;;;;14.71;74.10;100981.75;4887445;29;45455;-77
2022/11/07 08:18:44;;;;;;;;;4.00;3.67;;;;;14.81;73.67;100987.75;4895575;29;45210;-77
2022/11/07 08:21:10;;;;;;;;;5.00;5.00;;;;;14.80;73.42;100978.94;4886821;29;46355;-76
2022/11/07 08:23:36;;;;;;;;;2.33;2.33;;;;;14.88;73.35;100971.72;4887113;29;45308;-77
2022/11/07 08:26:03;;;;;;;;;3.67;2.67;;;;;14.97;73.30;100981.31;4887285;29;45347;-77
2022/11/07 08:28:31;;;;;;;;;3.33;2.33;;;;;15.00;72.73;100986.56;4904029;29;45482;-76
2022/11/07 08:31:09;;;;;;;;;1.00;1.00;;;;;14.97;72.51;100998.09;4903792;29;45657;-77
2022/11/07 08:33:35;;;;;;;;;2.00;2.00;;;;;15.05;72.41;101002.34;4886851;29;45546;-77
2022/11/07 08:36:02;;;;;;;;;3.00;3.00;;;;;15.08;72.24;100997.03;4903652;29;45195;-77
2022/11/07 08:38:29;;;;;;;;;2.33;2.00;;;;;15.12;72.18;101002.22;4886577;29;45450;-76
2022/11/07 08:40:55;;;;;;;;;3.67;2.33;;;;;15.14;72.25;100996.91;4886348;28;46332;-76
2022/11/07 08:43:21;;;;;;;;;5.00;3.00;;;;;15.19;72.03;101001.22;4903664;29;45306;-77
2022/11/07 08:45:47;;;;;;;;;4.67;4.67;;;;;15.21;71.85;100990.59;4886440;29;45327;-77
2022/11/07 08:48:14;;;;;;;;;2.33;2.33;;;;;15.31;71.78;101000.09;4896406;29;45448;-77
2022/11/07 08:50:40;;;;;;;;;3.00;2.00;;;;;15.35;71.62;100995.63;4886075;29;47537;-76
2022/11/07 08:53:06;;;;;;;;;2.00;1.00;;;;;15.29;71.36;100971.84;4903422;29;45234;-77
2022/11/07 08:55:31;;;;;;;;;3.00;2.00;;;;;15.44;71.19;100995.44;4903837;29;45185;-76
2022/11/07 08:57:58;;;;;;;;;7.00;5.33;;;;;15.39;71.47;100976.06;4903600;29;45609;-77
2022/11/07 09:00:24;;;;;;;;;6.67;6.00;;;;;15.50;71.20;101003.25;4903551;29;45440;-76
2022/11/07 09:02:49;;;;;;;;;7.33;4.67;;;;;15.44;71.24;101003.41;4895702;29;45427;-76
2022/11/07 09:05:15;;;;;;;;;3.33;2.33;;;;;15.41;71.21;100999.03;4884309;29;45471;-76
2022/11/07 09:07:40;;;;;;;;;10.00;7.67;;;;;15.43;70.97;100999.00;4888883;28;45459;-76
2022/11/07 09:10:06;;;;;;;;;9.00;7.33;;;;;15.41;70.95;101006.97;4890913;29;47061;-77
2022/11/07 09:12:31;;;;;;;;;6.00;6.00;;;;;15.38;70.79;101001.75;4903500;28;45339;-76
2022/11/07 09:14:57;;;;;;;;;6.67;4.00;;;;;15.39;71.10;101008.78;4886333;29;45416;-76
2022/11/07 09:17:25;;;;;;;;;6.67;5.00;;;;;15.36;70.86;101003.53;4890098;28;45335;-76
2022/11/07 09:19:50;;;;;;;;;4.33;4.33;;;;;15.42;70.74;101022.03;4906433;28;47186;-76
2022/11/07 09:22:15;;;;;;;;;3.00;2.67;;;;;15.50;70.62;101040.41;4885249;29;45234;-75
2022/11/07 09:24:41;;;;;;;;;3.00;2.00;;;;;15.51;70.66;101038.66;4871845;29;45250;-76
2022/11/07 09:27:06;;;;;;;;;5.33;4.67;;;;;15.41;70.74;101038.81;4884423;29;45302;-77
2022/11/07 09:29:31;;;;;;;;;5.00;3.33;;;;;15.46;70.68;101025.47;4866760;29;46965;-76
2022/11/07 09:31:58;;;;;;;;;2.00;2.00;;;;;15.46;70.52;101016.66;4884155;29;45187;-76
2022/11/07 09:34:24;;;;;;;;;5.00;4.00;;;;;15.55;70.70;101017.31;4867294;29;45461;-76
2022/11/07 09:37:03;;;;;;;;;3.00;2.00;;;;;15.65;70.40;101016.22;4884037;29;45519;-77
2022/11/07 09:39:32;;;;;;;;;3.00;2.00;;;;;15.76;70.30;101026.66;4883737;29;45670;-77
2022/11/07 09:42:21;;;;;;;;;4.00;3.00;;;;;15.75;70.28;101011.66;4895886;28;45447;-78
2022/11/07 10:11:28;;;;;;;;;4.00;3.00;;;;;16.21;68.54;101025.72;5919437;23;47123;-79
2022/11/07 10:14:22;;;;;;;;;4.00;3.67;;;;;16.18;68.50;101036.41;4862790;29;47333;-77
2022/11/07 10:36:01;;;;;;;;;7.00;3.00;;;;;16.53;67.65;101012.53;5139065;23;47020;-80
2022/11/07 10:38:29;;;;;;;;;3.67;2.33;;;;;16.61;67.89;101014.16;4884219;29;46961;-77
2022/11/07 10:40:55;;;;;;;;;6.33;2.00;;;;;16.66;67.56;101013.13;4886394;28;45461;-77
2022/11/07 10:43:35;;;;;;;;;3.67;1.33;;;;;16.63;67.58;101004.38;4902232;29;45390;-76
2022/11/07 10:46:16;;;;;;;;;3.00;3.00;;;;;16.67;67.37;101009.53;4901657;29;45291;-76
2022/11/07 10:48:52;;;;;;;;;2.00;2.00;;;;;16.66;67.22;101004.28;4884505;29;46691;-77
2022/11/07 10:51:18;;;;;;;;;3.00;3.00;;;;;16.83;67.24;101003.88;4884683;29;45520;-77
2022/11/07 10:53:44;;;;;;;;;2.00;1.33;;;;;17.03;66.84;101020.22;4901843;29;45166;-76
2022/11/07 10:56:12;;;;;;;;;7.00;6.00;;;;;17.29;66.68;101000.00;4884811;29;45362;-78
2022/11/07 10:58:44;;;;;;;;;6.00;3.00;;;;;17.35;66.02;101008.72;4901646;29;45225;-77
2022/11/07 11:01:13;;;;;;;;;4.00;4.00;;;;;17.48;66.29;101016.34;4901475;29;45253;-79
2022/11/07 11:03:47;;;;;;;;;4.00;3.67;;;;;17.47;65.54;101034.09;4884841;29;45538;-83
2022/11/07 11:06:44;;;;;;;;;2.00;2.00;;;;;17.54;65.52;101017.06;4887456;29;45210;-77
2022/11/07 11:09:17;;;;;;;;;2.33;2.00;;;;;18.16;65.53;101004.63;4904969;29;45375;-79
2022/11/07 11:11:49;;;;;;;;;3.00;3.00;;;;;19.01;64.84;100986.75;4887711;29;45312;-78
2022/11/07 11:14:17;;;;;;;;;4.33;4.33;;;;;20.39;63.36;101000.28;4887921;29;45371;-77
2022/11/07 11:16:43;;;;;;;;;4.00;3.00;;;;;21.55;61.17;100991.81;4902909;29;45416;-77
2022/11/07 11:19:27;;;;;;;;;5.33;3.00;;;;;22.36;59.04;100997.88;4896567;29;47875;-78
2022/11/07 11:21:54;;;;;;;;;4.00;2.67;;;;;22.85;57.31;100988.25;4904418;29;45365;-78
2022/11/07 11:24:30;;;;;;;;;3.67;1.00;;;;;23.17;56.27;100985.72;4904338;29;45464;-76
2022/11/07 11:27:06;;;;;;;;;1.67;1.67;;;;;23.48;54.54;100981.41;4904510;29;45336;-78
2022/11/07 11:29:44;;;;;;;;;3.00;3.00;;;;;23.14;52.73;100998.44;4904734;29;45665;-77
2022/11/07 11:32:39;;;;;;;;;2.00;1.33;;;;;22.77;52.80;100990.41;4905124;29;45284;-77
2022/11/07 11:35:24;;;;;;;;;3.00;2.00;;;;;22.73;51.75;100975.44;4904175;29;45169;-77
2022/11/07 11:38:10;;;;;;;;;1.00;1.00;;;;;22.38;52.33;100972.69;4904189;29;45248;-77
2022/11/07 11:40:39;;;;;;;;;2.33;2.33;;;;;23.02;51.42;100981.16;4905774;28;46280;-77
2022/11/07 11:43:16;;;;;;;;;4.00;1.67;;;;;22.97;50.75;100978.72;4904685;28;45460;-77
2022/11/07 11:59:58;;;;;;;;;;;;;;;;;;;;;
2022/11/07 12:10:05;;;;;;;;;;;;;;;;;;;;;
2022/11/07 12:20:16;;;;;;;;;;;;;;;;;;;;;
2022/11/07 12:41:26;;;;;;;;;;;;;;;;;;;;;
2022/11/07 12:50:53;;;;;;;;;0.67;0.67;;;;;19.97;53.23;100960.97;4881426;29;45234;-85
2022/11/07 12:53:58;;;;;;;;;2.67;2.00;;;;;19.77;53.75;100943.03;4880972;29;45333;-83
2022/11/07 12:57:04;;;;;;;;;;;;;;;;;;;;;
2022/11/07 16:15:08;;;;;;;;;2.67;2.67;;;;;17.04;59.19;100865.00;4824801;29;45642;-83
2022/11/07 16:21:05;;;;;;;;;2.00;2.00;;;;;16.98;59.89;100890.00;4859453;29;45542;-79
2022/11/07 16:24:18;;;;;;;;;3.67;3.00;;;;;16.90;60.06;100899.13;4845454;29;45527;-77
2022/11/07 16:26:49;;;;;;;;;2.00;2.00;;;;;16.74;60.26;100880.00;4801417;29;48135;-80
2022/11/07 16:30:02;;;;;;;;;3.67;2.67;;;;;16.63;60.50;100876.78;4865863;29;45309;-80
2022/11/07 16:32:33;;;;;;;;;3.00;2.00;;;;;16.61;60.83;100879.47;4858620;29;45521;-79
2022/11/07 16:35:27;;;;;;;;;4.67;3.00;;;;;16.60;60.82;100891.00;4846266;29;45499;-78
2022/11/07 16:38:42;;;;;;;;;;;;;;;;;;;;;
2022/11/07 16:41:49;;;;;;;;;;;;;;;;;;;;;
2022/11/07 16:48:34;;;;;;;;;5.00;5.00;;;;;16.36;61.58;100892.53;4805767;29;45594;-80
2022/11/07 17:46:54;;;;;;;;;2.00;2.00;;;;;15.93;64.29;100898.88;4897608;29;45438;-80
2022/11/07 17:53:32;;;;;;;;;;;;;;;;;;;;;
2022/11/07 17:59:42;;;;;;;;;;;;;;;;;;;;;
2022/11/07 18:02:18;;;;;;;;;1.33;1.33;;;;;16.01;64.34;100870.34;4895241;29;73953;-78
2022/11/07 18:04:44;;;;;;;;;1.33;1.33;;;;;16.04;64.53;100867.63;4901191;29;45336;-79
2022/11/07 18:07:11;;;;;;;;;5.00;4.00;;;;;16.10;64.25;100874.56;4901244;29;45400;-78
2022/11/07 18:09:37;;;;;;;;;4.67;4.00;;;;;16.16;63.99;100885.03;4874024;29;45317;-78
2022/11/07 18:12:09;;;;;;;;;5.00;4.00;;;;;16.20;63.95;100900.00;4883572;29;45613;-79
2022/11/07 18:14:34;;;;;;;;;4.00;4.00;;;;;16.18;64.09;100885.88;4893517;29;45348;-80
2022/11/07 18:17:03;;;;;;;;;3.00;3.00;;;;;16.24;63.88;100891.03;4891670;29;45436;-81
2022/11/07 18:19:28;;;;;;;;;3.33;2.00;;;;;16.21;63.41;100882.28;4886945;29;45490;-79
2022/11/07 18:22:00;;;;;;;;;3.00;3.00;;;;;16.14;63.53;100873.56;4881448;29;47798;-78
2022/11/07 18:24:30;;;;;;;;;4.67;4.67;;;;;16.18;63.58;100892.97;4872566;29;45324;-78